»·PEaware :: SKY74 KABQ-KSKX

SKY74 :: KABQ-KSKX

FLIGHT INFORMATION

Flight Status: Arrived
Operator:
Sky High Charters
More flights by this operator :: More flights under this callsign
Pilot: Charles C. (26995)
Aircraft: MCDONNELL-DOUGLAS SKYTRAIN C-47
(DC3)
More flights by this aircraft type
Origin: KABQ Albuquerque Intl Sunport
United States
Destination: KSKX Taos Regl
United States
More flights between these airports :: More routes between these airports
Route: +LARGO3 ABQ V263 SAF V83 DIXAN
File this flight plan on PilotEdge
Remarks: SCENARIO 2
Altitude:
(Current/Filed)
9,000ft
Speed:
(Current/Filed)
150kts
Departed: 22-Aug-20 08:29 AM
Arrived: 22-Aug-20 09:18 AM
Distance/Time
Traveled:
97nm/0:49
Distance/Time
To Go:
Arrived

Flight Plot

Page will automatically refresh every two minutes.

Flight plan parsing failed; only flown route is shown


Map Options




Map Legend


Flown Route
Filed Route
Departure Airport
Arrival Airport
Navaid (VOR, NDB)
Fix

Horizontal Profiles

Position Reports

Time Latitude Longitude Heading Altitude Ground
Speed
22-Aug-20 08:19 35.047450 -106.618706 110 5309ft 0kts
22-Aug-20 08:20 35.047450 -106.618706 110 5309ft 0kts
22-Aug-20 08:21 35.047450 -106.618706 110 5309ft 0kts
22-Aug-20 08:22 35.047450 -106.618706 110 5309ft 0kts
22-Aug-20 08:23 35.047378 -106.618667 222 5309ft 0kts
22-Aug-20 08:24 35.047378 -106.618667 222 5309ft 0kts
22-Aug-20 08:25 35.045772 -106.619723 222 5309ft 12kts
22-Aug-20 08:26 35.045329 -106.621330 191 5302ft 0kts
22-Aug-20 08:27 35.044372 -106.621104 113 5303ft 9kts
22-Aug-20 08:28 35.044217 -106.600657 89 5392ft 119kts
22-Aug-20 08:29 35.054408 -106.572733 328 6271ft 101kts
22-Aug-20 08:30 35.079264 -106.597478 319 6750ft 122kts
22-Aug-20 08:31 35.104970 -106.625193 320 7342ft 125kts
22-Aug-20 08:32 35.131496 -106.651783 321 7862ft 132kts
22-Aug-20 08:33 35.162069 -106.676264 321 8349ft 134kts
22-Aug-20 08:34 35.192926 -106.703442 326 8715ft 140kts
22-Aug-20 08:35 35.224986 -106.731407 323 9077ft 142kts
22-Aug-20 08:36 35.261217 -106.741439 39 9086ft 161kts
22-Aug-20 08:37 35.297969 -106.708244 19 9074ft 166kts
22-Aug-20 08:38 35.338795 -106.690535 18 9077ft 167kts
22-Aug-20 08:39 35.382952 -106.671743 18 9080ft 168kts
22-Aug-20 08:40 35.427699 -106.652692 18 9015ft 171kts
22-Aug-20 08:41 35.472449 -106.634045 18 9015ft 169kts
22-Aug-20 08:42 35.516640 -106.614559 38 8990ft 170kts
22-Aug-20 08:43 35.523850 -106.558110 85 9017ft 171kts
22-Aug-20 08:44 35.525538 -106.499538 86 9026ft 172kts
22-Aug-20 08:45 35.526988 -106.440793 85 9036ft 172kts
22-Aug-20 08:46 35.528702 -106.381923 85 9045ft 172kts
22-Aug-20 08:47 35.530496 -106.322939 85 9054ft 173kts
22-Aug-20 08:48 35.532225 -106.263902 85 9353ft 166kts
22-Aug-20 08:49 35.533804 -106.209384 85 10012ft 156kts
22-Aug-20 08:50 35.535317 -106.156225 85 10576ft 155kts
22-Aug-20 08:51 35.536818 -106.102608 86 11007ft 161kts
22-Aug-20 08:52 35.559088 -106.062054 11 11045ft 169kts
22-Aug-20 08:53 35.605465 -106.052642 7 11039ft 168kts
22-Aug-20 08:54 35.651903 -106.045352 6 11038ft 168kts
22-Aug-20 08:55 35.698395 -106.038385 6 10955ft 172kts
22-Aug-20 08:56 35.745701 -106.031335 6 10940ft 170kts
22-Aug-20 08:57 35.792193 -106.024410 6 10956ft 168kts
22-Aug-20 08:58 35.838086 -106.017562 6 10971ft 167kts
22-Aug-20 08:59 35.884783 -106.010584 6 10977ft 167kts
22-Aug-20 09:00 35.931215 -106.003634 6 10982ft 168kts
22-Aug-20 09:01 35.977472 -105.996699 6 10988ft 168kts
22-Aug-20 09:02 36.023905 -105.989726 6 10993ft 168kts
22-Aug-20 09:03 36.070675 -105.984340 5 10995ft 169kts
22-Aug-20 09:04 36.117601 -105.977713 6 10999ft 170kts
22-Aug-20 09:05 36.164536 -105.970711 6 11001ft 170kts
22-Aug-20 09:06 36.211544 -105.963683 7 11005ft 170kts
22-Aug-20 09:07 36.258642 -105.956561 5 11004ft 168kts
22-Aug-20 09:08 36.300504 -105.951933 337 10999ft 136kts
22-Aug-20 09:09 36.323279 -105.938806 106 10884ft 132kts
22-Aug-20 09:10 36.325118 -105.900797 37 10328ft 148kts
22-Aug-20 09:11 36.354480 -105.858615 54 9344ft 171kts
22-Aug-20 09:12 36.379876 -105.811824 58 9069ft 139kts
22-Aug-20 09:13 36.400088 -105.776191 53 8868ft 124kts
22-Aug-20 09:14 36.419284 -105.741129 55 8232ft 122kts
22-Aug-20 09:15 36.437845 -105.709453 49 7614ft 112kts
22-Aug-20 09:16 36.453766 -105.680800 60 7112ft 83kts
22-Aug-20 09:17 36.458719 -105.672883 57 7096ft 10kts
22-Aug-20 09:18 36.459504 -105.672346 50 7096ft 0kts
22-Aug-20 09:20 36.459504 -105.672346 50 7096ft 0kts
22-Aug-20 09:21 36.459504 -105.672346 50 7096ft 0kts
22-Aug-20 09:22 36.459504 -105.672346 50 7096ft 0kts
22-Aug-20 09:23 36.459504 -105.672346 50 7096ft 0kts

Navigation Log

Ident Type
Flight plan parsing failed, navigation log unavailable